Terminal Aerodrome Forecast
Issued by NWS

Home | Current Version | Previous Version | Text Only | Print | Product List | Glossary On
Versions: 1 2 3 4 5 6 7 8 9 10 11 12 13 14 15 16 17 18 19 20 21 22
000
FTUS46 KOTX 210413 AAB
TAFSFF
TAF AMD
KSFF 210413Z 2104/2124 00000KT P6SM OVC011
     FM210500 22012KT P6SM SCT080 SCT250
     FM210700 VRB04KT P6SM SCT250
     FM211300 05005KT P6SM SCT003 BKN070 OVC120
     FM211700 VRB04KT 5SM -RASN BR SCT007 BKN012 OVC018=

USA.gov is the U.S. government's official web portal to all federal, state and local government web resources and services.